Startpagina
METAR-TAF:

METAR-TAF

Vliegvelden :

Colmar, Frankrijk

breedte: 48-06-37N, lengte: 7-21-33E, hoogte: 191 m

Actueel weer

Dit bericht is 21 minuten geleden gemaakt, om 23:30 UTC
Wind 7 kt uit het zuiden
Temperatuur 14°C
Vochtigheid 94%
Druk 1002 hPa
Zicht: 7000 m
regen

METAR: LFGA 052330Z AUTO 19007KT 7000 RA FEW007/// BKN039/// OVC046/// ///TCU 14/13 Q1002

Tijdstip: 01:51 (23:51 UTC)


TAF: ontbreekt

Waarnemingen en weersverwachtingen van meer dan 4000 vliegvelden (METAR en TAF).

De beschikbare stations zijn de gele en rode punten op de kaart.

Ga met uw muis naar het station om de naam te zien.

Klik dan om waarnemingen en weersverwachtingen te zien.

kaart wijzigen: klik op de groene knoppen met een zwart kruis om in te zoomen, op de groene knop met een streepje om uit te zoomen of op de groene pijlen voor aangrenzende kaarten.


METAR-TAF: